createdAt,value
2018-05-15T00:01:06.728Z,3.53
2018-05-15T00:03:33.326Z,3.70
2018-05-15T00:06:00.106Z,3.43
2018-05-15T00:08:26.723Z,4.10
2018-05-15T00:10:53.589Z,3.60
2018-05-15T00:13:20.167Z,3.50
2018-05-15T00:15:46.752Z,4.23
2018-05-15T00:18:13.349Z,4.03
2018-05-15T00:20:40.113Z,3.63
2018-05-15T00:23:06.710Z,3.80
2018-05-15T00:25:33.470Z,3.10
2018-05-15T00:28:00.082Z,3.47
2018-05-15T00:30:26.666Z,4.07
2018-05-15T00:32:53.274Z,3.83
2018-05-15T00:35:19.845Z,3.53
2018-05-15T00:37:46.447Z,3.83
2018-05-15T00:40:13.034Z,4.10
2018-05-15T00:42:39.629Z,3.33
2018-05-15T00:45:06.197Z,3.70
2018-05-15T00:47:32.814Z,4.37
2018-05-15T00:49:59.396Z,3.63
2018-05-15T00:52:25.986Z,4.13
2018-05-15T00:54:53.294Z,3.83
2018-05-15T00:57:19.876Z,3.87
2018-05-15T00:59:46.502Z,4.07
2018-05-15T01:02:13.102Z,3.37
2018-05-15T01:04:39.714Z,3.67
2018-05-15T01:07:06.334Z,3.97
2018-05-15T01:09:32.960Z,3.87
2018-05-15T01:11:59.534Z,3.53
2018-05-15T01:14:26.138Z,3.70
2018-05-15T01:16:52.718Z,4.07
2018-05-15T01:19:19.327Z,4.10
2018-05-15T01:21:46.006Z,3.90
2018-05-15T01:24:12.606Z,3.50
2018-05-15T01:26:39.181Z,3.80
2018-05-15T01:29:05.784Z,4.00
2018-05-15T01:31:32.413Z,3.33
2018-05-15T01:33:59.015Z,4.23
2018-05-15T01:36:25.624Z,3.63
2018-05-15T01:38:52.270Z,3.47
2018-05-15T01:41:18.880Z,3.67
2018-05-15T01:43:45.666Z,3.80
2018-05-15T01:46:12.283Z,3.93
2018-05-15T01:48:39.045Z,3.67
2018-05-15T01:51:05.827Z,4.30
2018-05-15T01:53:32.418Z,3.87
2018-05-15T01:55:59.030Z,3.70
2018-05-15T01:58:25.665Z,4.10
2018-05-15T02:00:52.290Z,3.93
2018-05-15T02:03:18.905Z,4.40
2018-05-15T02:05:45.541Z,3.90
2018-05-15T02:08:12.165Z,4.10
2018-05-15T02:10:38.759Z,4.43
2018-05-15T02:13:05.647Z,3.63
2018-05-15T02:15:32.264Z,4.10
2018-05-15T02:17:58.858Z,3.63
2018-05-15T02:20:25.505Z,3.90
2018-05-15T02:22:52.143Z,4.07
2018-05-15T02:25:18.744Z,4.60
2018-05-15T02:27:45.365Z,4.07
2018-05-15T02:30:11.996Z,3.77
2018-05-15T02:32:38.618Z,3.37
2018-05-15T02:35:05.254Z,4.03
2018-05-15T02:37:31.866Z,3.80
2018-05-15T02:39:58.475Z,3.87
2018-05-15T02:42:25.064Z,4.27
2018-05-15T02:44:51.656Z,3.80
2018-05-15T02:47:18.267Z,3.77
2018-05-15T02:49:44.882Z,4.63
2018-05-15T02:52:11.450Z,3.70
2018-05-15T02:54:38.339Z,3.80
2018-05-15T02:57:04.942Z,4.00
2018-05-15T02:59:31.521Z,4.00
2018-05-15T03:01:58.193Z,4.50
2018-05-15T03:04:24.800Z,4.10
2018-05-15T03:06:51.416Z,4.03
2018-05-15T03:09:18.019Z,4.37
2018-05-15T03:11:44.700Z,3.83
2018-05-15T03:14:11.297Z,4.23
2018-05-15T03:16:37.861Z,3.80
2018-05-15T03:19:04.455Z,4.20
2018-05-15T03:21:31.064Z,4.00
2018-05-15T03:23:57.678Z,4.10
2018-05-15T03:26:24.294Z,4.23
2018-05-15T03:28:51.026Z,4.40
2018-05-15T03:31:17.644Z,4.00
2018-05-15T03:33:44.299Z,3.80
2018-05-15T03:36:10.934Z,4.13
2018-05-15T03:38:37.524Z,3.90
2018-05-15T03:41:04.111Z,4.20
2018-05-15T03:43:30.759Z,4.30
2018-05-15T03:45:57.373Z,4.60
2018-05-15T03:48:23.962Z,3.97
2018-05-15T03:50:50.554Z,4.17
2018-05-15T03:53:17.161Z,4.47
2018-05-15T03:55:43.738Z,4.00
2018-05-15T03:58:10.352Z,4.80
2018-05-15T04:00:42.892Z,4.10
2018-05-15T04:03:15.307Z,4.50
2018-05-15T04:05:47.816Z,4.40
2018-05-15T04:08:14.439Z,4.50
2018-05-15T04:10:41.058Z,4.83
2018-05-15T04:13:07.687Z,4.20
2018-05-15T04:15:34.519Z,4.27
2018-05-15T04:18:01.138Z,4.17
2018-05-15T04:20:27.736Z,4.73
2018-05-15T04:22:54.322Z,4.13
2018-05-15T04:25:21.026Z,4.50
2018-05-15T04:27:47.613Z,4.43
2018-05-15T04:30:14.231Z,4.30
2018-05-15T04:32:40.811Z,4.47
2018-05-15T04:35:07.436Z,4.50
2018-05-15T04:37:34.005Z,4.40
2018-05-15T04:40:00.623Z,4.90
2018-05-15T04:42:27.220Z,4.73
2018-05-15T04:44:53.864Z,4.80
2018-05-15T04:47:20.467Z,5.17
2018-05-15T04:49:47.102Z,4.70
2018-05-15T04:52:13.703Z,4.77
2018-05-15T04:54:40.321Z,4.13
2018-05-15T04:57:06.973Z,4.43
2018-05-15T04:59:33.594Z,4.90
2018-05-15T05:02:00.276Z,4.33
2018-05-15T05:04:26.994Z,4.70
2018-05-15T05:06:54.131Z,5.00
2018-05-15T05:09:21.018Z,5.40
2018-05-15T05:11:47.714Z,4.67
2018-05-15T05:14:14.266Z,4.40
2018-05-15T05:16:41.024Z,4.93
2018-05-15T05:19:07.640Z,5.03
2018-05-15T05:21:34.250Z,5.30
2018-05-15T05:24:01.008Z,5.27
2018-05-15T05:26:27.579Z,5.17
2018-05-15T05:28:54.195Z,5.00
2018-05-15T05:31:20.848Z,5.87
2018-05-15T05:33:47.500Z,5.30
2018-05-15T05:36:14.104Z,5.43
2018-05-15T05:38:40.701Z,5.10
2018-05-15T05:41:07.279Z,5.80
2018-05-15T05:43:33.898Z,5.10
2018-05-15T05:46:00.689Z,5.87
2018-05-15T05:48:27.278Z,5.40
2018-05-15T05:50:54.047Z,4.60
2018-05-15T05:53:20.680Z,5.37
2018-05-15T05:55:47.290Z,4.60
2018-05-15T05:58:13.886Z,5.23
2018-05-15T06:00:40.480Z,4.70
2018-05-15T06:03:07.098Z,5.40
2018-05-15T06:05:33.701Z,4.80
2018-05-15T06:08:00.353Z,5.70
2018-05-15T06:10:26.931Z,5.80
2018-05-15T06:12:53.593Z,5.90
2018-05-15T06:15:20.220Z,5.80
2018-05-15T06:17:46.812Z,5.90
2018-05-15T06:20:23.120Z,6.03
2018-05-15T06:22:49.738Z,5.00
2018-05-15T06:25:16.363Z,5.37
2018-05-15T06:27:42.936Z,6.40
2018-05-15T06:30:09.527Z,6.00
2018-05-15T06:32:36.158Z,6.47
2018-05-15T06:35:02.766Z,6.03
2018-05-15T06:37:29.599Z,6.70
2018-05-15T06:39:56.212Z,7.60
2018-05-15T06:42:22.833Z,6.10
2018-05-15T06:44:49.433Z,6.57
2018-05-15T06:47:16.065Z,6.17
2018-05-15T06:49:42.808Z,6.03
2018-05-15T06:52:09.774Z,5.97
2018-05-15T06:54:36.611Z,6.23
2018-05-15T06:57:03.193Z,6.23
2018-05-15T06:59:29.819Z,5.93
2018-05-15T07:01:56.470Z,5.90
2018-05-15T07:04:23.079Z,5.73
2018-05-15T07:06:49.715Z,6.10
2018-05-15T07:09:16.806Z,5.73
2018-05-15T07:11:43.444Z,5.40
2018-05-15T07:14:10.114Z,7.03
2018-05-15T07:16:36.675Z,5.60
2018-05-15T07:19:03.267Z,5.90
2018-05-15T07:21:29.892Z,6.00
2018-05-15T07:23:56.515Z,5.77
2018-05-15T07:26:23.131Z,6.70
2018-05-15T07:28:49.724Z,5.80
2018-05-15T07:31:17.273Z,5.97
2018-05-15T07:33:43.998Z,6.47
2018-05-15T07:36:10.648Z,6.23
2018-05-15T07:38:37.235Z,6.30
2018-05-15T07:41:03.869Z,6.20
2018-05-15T07:43:30.466Z,6.30
2018-05-15T07:45:57.114Z,6.80
2018-05-15T07:48:23.711Z,5.27
2018-05-15T07:50:50.319Z,5.93
2018-05-15T07:53:16.946Z,6.40
2018-05-15T07:55:43.562Z,6.40
2018-05-15T07:58:10.147Z,6.30
2018-05-15T08:00:36.773Z,5.90
2018-05-15T08:03:03.357Z,6.27
2018-05-15T08:05:29.995Z,6.40
2018-05-15T08:07:56.591Z,5.87
2018-05-15T08:10:23.195Z,5.57
2018-05-15T08:12:49.959Z,6.30
2018-05-15T08:15:16.886Z,5.93
2018-05-15T08:17:43.768Z,5.50
2018-05-15T08:20:10.746Z,5.50
2018-05-15T08:22:37.467Z,6.20
2018-05-15T08:25:03.948Z,6.03
2018-05-15T08:27:30.591Z,6.00
2018-05-15T08:29:57.418Z,6.23
2018-05-15T08:32:24.077Z,5.57
2018-05-15T08:34:50.682Z,6.10
2018-05-15T08:37:17.398Z,6.30
2018-05-15T08:39:43.944Z,6.03
2018-05-15T08:42:10.570Z,5.67
2018-05-15T08:44:37.177Z,5.70
2018-05-15T08:47:04.355Z,6.13
2018-05-15T08:49:30.983Z,5.67
2018-05-15T08:51:57.559Z,6.17
2018-05-15T08:54:24.477Z,5.10
2018-05-15T08:56:51.085Z,6.53
2018-05-15T08:59:17.687Z,5.83
2018-05-15T09:01:44.273Z,6.23
2018-05-15T09:04:11.031Z,5.80
2018-05-15T09:06:37.931Z,6.73
2018-05-15T09:09:05.375Z,6.30
2018-05-15T09:11:31.965Z,5.37
2018-05-15T09:13:58.616Z,4.90
2018-05-15T09:16:25.717Z,5.43
2018-05-15T09:18:52.248Z,4.53
2018-05-15T09:21:18.838Z,5.90
2018-05-15T09:23:45.445Z,5.57
2018-05-15T09:26:12.052Z,4.90
2018-05-15T09:28:38.903Z,5.17
2018-05-15T09:31:05.527Z,5.50
2018-05-15T09:33:32.176Z,5.13
2018-05-15T09:35:58.794Z,4.50
2018-05-15T09:38:25.373Z,5.10
2018-05-15T09:40:52.285Z,5.37
2018-05-15T09:43:24.824Z,5.07
2018-05-15T09:45:51.441Z,4.27
2018-05-15T09:48:18.048Z,5.63
2018-05-15T09:50:44.692Z,4.97
2018-05-15T09:53:11.292Z,4.90
2018-05-15T09:55:37.987Z,3.87
2018-05-15T09:58:04.655Z,3.70
2018-05-15T10:00:33.477Z,3.30
2018-05-15T10:03:00.080Z,3.73
2018-05-15T10:05:26.686Z,3.43
2018-05-15T10:07:53.334Z,3.33
2018-05-15T10:10:20.063Z,3.20
2018-05-15T10:12:46.688Z,3.37
2018-05-15T10:15:13.294Z,3.73
2018-05-15T10:17:40.095Z,3.30
2018-05-15T10:20:06.793Z,2.90
2018-05-15T10:22:33.321Z,3.40
2018-05-15T10:24:59.968Z,3.60
2018-05-15T10:27:26.781Z,3.37
2018-05-15T10:29:53.421Z,3.40
2018-05-15T10:32:20.008Z,3.00
2018-05-15T10:34:46.757Z,4.23
2018-05-15T10:37:13.416Z,3.20
2018-05-15T10:39:40.011Z,4.17
2018-05-15T10:42:06.643Z,3.90
2018-05-15T10:44:33.789Z,3.60
2018-05-15T10:47:00.380Z,3.97
2018-05-15T10:49:26.973Z,3.67
2018-05-15T10:51:53.581Z,3.80
2018-05-15T10:54:20.230Z,3.70
2018-05-15T10:56:46.793Z,3.90
2018-05-15T10:59:13.394Z,3.77
2018-05-15T11:01:39.999Z,3.70
2018-05-15T11:04:06.619Z,3.80
2018-05-15T11:06:33.259Z,4.10
2018-05-15T11:08:59.905Z,4.67
2018-05-15T11:11:26.535Z,3.93
2018-05-15T11:13:53.214Z,3.90
2018-05-15T11:16:19.819Z,4.10
2018-05-15T11:18:46.460Z,4.17
2018-05-15T11:21:18.850Z,3.43
2018-05-15T11:23:51.295Z,4.37
2018-05-15T11:26:17.886Z,4.80
2018-05-15T11:28:44.529Z,3.57
2018-05-15T11:31:11.138Z,4.23
2018-05-15T11:33:37.759Z,4.03
2018-05-15T11:36:04.530Z,3.93
2018-05-15T11:38:31.000Z,4.40
2018-05-15T11:40:57.682Z,4.37
2018-05-15T11:43:24.250Z,4.43
2018-05-15T11:45:50.869Z,4.33
2018-05-15T11:48:18.345Z,3.90
2018-05-15T11:50:45.011Z,4.07
2018-05-15T11:53:11.432Z,4.03
2018-05-15T11:55:42.709Z,4.37
2018-05-15T11:58:04.230Z,4.20
2018-05-15T12:00:30.738Z,3.90
2018-05-15T12:02:57.314Z,4.20
2018-05-15T12:05:23.951Z,3.93
2018-05-15T12:07:50.601Z,4.03
2018-05-15T12:10:17.255Z,4.37
2018-05-15T12:12:43.841Z,4.17
2018-05-15T12:15:10.515Z,4.10
2018-05-15T12:17:37.072Z,4.40
2018-05-15T12:20:03.712Z,4.33
2018-05-15T12:22:30.394Z,4.30
2018-05-15T12:24:57.178Z,4.70
2018-05-15T12:27:23.785Z,4.40
2018-05-15T12:29:50.500Z,4.27
2018-05-15T12:32:17.087Z,4.03
2018-05-15T12:34:43.740Z,4.10
2018-05-15T12:37:10.343Z,3.87
2018-05-15T12:39:36.959Z,3.90
2018-05-15T12:42:03.789Z,4.90
2018-05-15T12:44:30.184Z,4.43
2018-05-15T12:46:56.778Z,4.43
2018-05-15T12:49:23.424Z,4.40
2018-05-15T12:51:50.054Z,4.60
2018-05-15T12:54:16.658Z,4.37
2018-05-15T12:56:43.942Z,4.47
2018-05-15T12:59:10.595Z,4.50
2018-05-15T13:01:37.298Z,4.20
2018-05-15T13:04:03.909Z,4.90
2018-05-15T13:06:30.570Z,4.00
2018-05-15T13:08:57.268Z,4.10
2018-05-15T13:11:23.978Z,4.43
2018-05-15T13:13:50.581Z,4.30
2018-05-15T13:16:17.192Z,4.03
2018-05-15T13:18:43.859Z,4.07
2018-05-15T13:21:10.844Z,4.13
2018-05-15T13:23:37.443Z,4.13
2018-05-15T13:26:04.152Z,4.43
2018-05-15T13:28:30.831Z,4.93
2018-05-15T13:30:57.485Z,4.37
2018-05-15T13:33:24.093Z,4.30
2018-05-15T13:35:50.702Z,4.37
2018-05-15T13:38:17.287Z,4.07
2018-05-15T13:40:43.938Z,4.90
2018-05-15T13:43:10.574Z,4.27
2018-05-15T13:45:37.197Z,4.50
2018-05-15T13:48:03.803Z,4.40
2018-05-15T13:50:30.497Z,4.87
2018-05-15T13:52:57.070Z,4.13
2018-05-15T13:55:23.698Z,4.70
2018-05-15T13:57:50.445Z,4.40
2018-05-15T14:00:17.289Z,4.23
2018-05-15T14:02:43.996Z,3.87
2018-05-15T14:05:10.697Z,3.90
2018-05-15T14:07:37.335Z,3.90
2018-05-15T14:10:03.926Z,4.10
2018-05-15T14:12:30.537Z,3.30
2018-05-15T14:14:57.129Z,4.37
2018-05-15T14:17:23.753Z,4.07
2018-05-15T14:19:51.274Z,3.87
2018-05-15T14:22:17.915Z,4.03
2018-05-15T14:24:44.543Z,4.13
2018-05-15T14:27:11.123Z,3.90
2018-05-15T14:29:37.711Z,3.47
2018-05-15T14:32:04.319Z,3.27
2018-05-15T14:34:30.961Z,3.30
2018-05-15T14:36:57.831Z,3.37
2018-05-15T14:39:24.453Z,3.23
2018-05-15T14:41:56.844Z,3.33
2018-05-15T14:44:23.480Z,3.70
2018-05-15T14:46:50.091Z,4.37
2018-05-15T14:49:16.751Z,3.33
2018-05-15T14:51:43.509Z,3.80
2018-05-15T14:54:10.209Z,3.67
2018-05-15T14:56:36.815Z,3.70
2018-05-15T14:59:03.453Z,3.87
2018-05-15T15:01:30.021Z,3.77
2018-05-15T15:03:56.692Z,4.07
2018-05-15T15:06:23.568Z,3.90
2018-05-15T15:08:50.172Z,3.97
2018-05-15T15:11:16.844Z,4.13
2018-05-15T15:13:43.444Z,3.90
2018-05-15T15:16:10.337Z,3.87
2018-05-15T15:18:36.944Z,3.87
2018-05-15T15:21:03.552Z,4.00
2018-05-15T15:23:30.153Z,4.20
2018-05-15T15:25:56.810Z,4.83
2018-05-15T15:28:23.412Z,4.20
2018-05-15T15:30:50.036Z,4.60
2018-05-15T15:33:16.637Z,4.77
2018-05-15T15:35:43.275Z,4.07
2018-05-15T15:38:09.882Z,4.60
2018-05-15T15:40:36.509Z,4.37
2018-05-15T15:43:03.158Z,4.80
2018-05-15T15:45:29.853Z,4.50
2018-05-15T15:47:56.582Z,5.30
2018-05-15T15:50:23.292Z,4.50
2018-05-15T15:52:49.818Z,4.83
2018-05-15T15:55:16.412Z,4.97
2018-05-15T15:57:43.013Z,4.90
2018-05-15T16:00:09.645Z,5.10
2018-05-15T16:02:36.285Z,4.90
2018-05-15T16:05:02.864Z,4.57
2018-05-15T16:07:29.794Z,4.90
2018-05-15T16:09:56.511Z,5.13
2018-05-15T16:12:23.017Z,5.60
2018-05-15T16:14:49.616Z,4.73
2018-05-15T16:17:16.211Z,5.20
2018-05-15T16:19:42.961Z,5.17
2018-05-15T16:22:09.672Z,4.60
2018-05-15T16:24:36.466Z,4.60
2018-05-15T16:27:03.214Z,5.10
2018-05-15T16:29:29.824Z,4.63
2018-05-15T16:31:56.430Z,5.50
2018-05-15T16:34:23.199Z,4.83
2018-05-15T16:37:01.285Z,4.93
2018-05-15T16:39:35.210Z,4.90
2018-05-15T16:42:01.923Z,5.53
2018-05-15T16:44:28.573Z,5.03
2018-05-15T16:46:55.399Z,4.77
2018-05-15T16:49:22.018Z,4.50
2018-05-15T16:51:49.697Z,4.70
2018-05-15T16:54:16.799Z,4.60
2018-05-15T16:56:43.411Z,5.60
2018-05-15T16:59:10.049Z,4.90
2018-05-15T17:01:36.684Z,4.80
2018-05-15T17:04:04.414Z,4.93
2018-05-15T17:06:31.070Z,4.80
2018-05-15T17:08:57.661Z,5.00
2018-05-15T17:11:24.290Z,4.63
2018-05-15T17:13:50.966Z,5.83
2018-05-15T17:16:17.594Z,5.50
2018-05-15T17:18:44.207Z,4.93
2018-05-15T17:21:10.911Z,5.73
2018-05-15T17:23:37.488Z,5.37
2018-05-15T17:26:04.187Z,4.80
2018-05-15T17:28:30.849Z,4.87
2018-05-15T17:30:57.420Z,4.80
2018-05-15T17:33:24.104Z,4.73
2018-05-15T17:35:50.766Z,4.37
2018-05-15T17:38:17.418Z,4.10
2018-05-15T17:40:44.065Z,5.37
2018-05-15T17:43:10.691Z,4.73
2018-05-15T17:45:37.353Z,5.40
2018-05-15T17:48:04.114Z,4.43
2018-05-15T17:50:30.693Z,3.97
2018-05-15T17:52:57.356Z,4.47
2018-05-15T17:55:24.077Z,3.87
2018-05-15T17:57:50.943Z,3.60
2018-05-15T18:00:17.599Z,3.07
2018-05-15T18:02:44.213Z,2.80
2018-05-15T18:05:10.843Z,3.23
2018-05-15T18:07:37.551Z,3.20
2018-05-15T18:10:04.242Z,2.83
2018-05-15T18:12:30.868Z,3.33
2018-05-15T18:14:57.484Z,2.93
2018-05-15T18:17:24.087Z,2.60
2018-05-15T18:19:51.084Z,2.70
2018-05-15T18:22:17.914Z,3.10
2018-05-15T18:24:44.535Z,2.63
2018-05-15T18:27:11.204Z,2.87
2018-05-15T18:29:37.826Z,2.70
2018-05-15T18:32:04.472Z,3.23
2018-05-15T18:34:31.092Z,3.30
2018-05-15T18:36:57.727Z,3.80
2018-05-15T18:39:24.359Z,3.40
2018-05-15T18:41:51.090Z,3.50
2018-05-15T18:44:17.704Z,3.70
2018-05-15T18:46:44.322Z,4.37
2018-05-15T18:49:11.335Z,4.07
2018-05-15T18:51:37.964Z,4.20
2018-05-15T18:54:04.524Z,4.10
2018-05-15T18:56:31.183Z,4.20
2018-05-15T18:58:57.820Z,3.73
2018-05-15T19:01:24.457Z,4.70
2018-05-15T19:03:51.091Z,5.10
2018-05-15T19:06:17.737Z,4.70
2018-05-15T19:08:44.376Z,6.57
2018-05-15T19:11:11.002Z,6.17
2018-05-15T19:13:38.578Z,5.30
2018-05-15T19:16:05.217Z,5.17
2018-05-15T19:18:31.840Z,4.77
2018-05-15T19:20:58.464Z,5.30
2018-05-15T19:23:25.087Z,5.67
2018-05-15T19:25:51.744Z,5.60
2018-05-15T19:28:18.614Z,4.67
2018-05-15T19:30:45.241Z,4.50
2018-05-15T19:33:16.890Z,4.37
2018-05-15T19:35:43.448Z,4.63
2018-05-15T19:38:10.097Z,5.13
2018-05-15T19:40:41.528Z,4.73
2018-05-15T19:43:08.145Z,5.50
2018-05-15T19:45:34.744Z,5.00
2018-05-15T19:48:01.365Z,5.33
2018-05-15T19:50:28.003Z,4.47
2018-05-15T19:52:54.616Z,4.63
2018-05-15T19:55:21.298Z,4.67
2018-05-15T19:57:47.965Z,10.10
2018-05-15T20:00:24.429Z,5.03
2018-05-15T20:02:51.035Z,4.80
2018-05-15T20:05:17.978Z,4.87
2018-05-15T20:07:44.634Z,4.93
2018-05-15T20:10:11.244Z,4.97
2018-05-15T20:12:37.858Z,5.23
2018-05-15T20:15:04.592Z,5.60
2018-05-15T20:17:31.224Z,5.07
2018-05-15T20:19:57.922Z,5.80
2018-05-15T20:22:24.564Z,5.37
2018-05-15T20:24:51.192Z,5.20
2018-05-15T20:27:17.931Z,6.10
2018-05-15T20:29:44.543Z,4.60
2018-05-15T20:32:11.178Z,5.43
2018-05-15T20:34:37.776Z,5.43
2018-05-15T20:37:04.619Z,4.80
2018-05-15T20:39:31.221Z,5.00
2018-05-15T20:41:57.901Z,5.40
2018-05-15T20:44:24.523Z,5.00
2018-05-15T20:46:51.147Z,5.27
2018-05-15T20:49:17.806Z,5.10
2018-05-15T20:51:44.412Z,5.27
2018-05-15T20:54:11.100Z,5.20
2018-05-15T20:56:37.769Z,5.40
2018-05-15T20:59:04.410Z,6.47
2018-05-15T21:01:31.022Z,5.63
2018-05-15T21:03:57.657Z,7.00
2018-05-15T21:06:24.300Z,5.80
2018-05-15T21:08:50.929Z,6.33
2018-05-15T21:11:17.537Z,6.27
2018-05-15T21:13:44.251Z,5.90
2018-05-15T21:16:10.858Z,5.80
2018-05-15T21:18:37.660Z,6.80
2018-05-15T21:21:04.304Z,6.43
2018-05-15T21:23:30.948Z,7.10
2018-05-15T21:25:57.569Z,7.43
2018-05-15T21:28:24.220Z,6.67
2018-05-15T21:30:50.901Z,7.90
2018-05-15T21:33:17.503Z,7.57
2018-05-15T21:35:44.329Z,7.33
2018-05-15T21:38:10.913Z,6.23
2018-05-15T21:40:37.737Z,6.30
2018-05-15T21:43:04.341Z,7.00
2018-05-15T21:45:30.941Z,6.70
2018-05-15T21:47:57.567Z,6.90
2018-05-15T21:53:53.403Z,6.20
2018-05-15T21:56:20.016Z,5.40
2018-05-15T21:58:46.621Z,5.63
2018-05-15T22:01:13.411Z,6.37
2018-05-15T22:03:40.037Z,4.90
2018-05-15T22:06:06.698Z,5.03
2018-05-15T22:08:33.300Z,6.10
2018-05-15T22:11:05.776Z,6.77
2018-05-15T22:13:38.326Z,5.13
2018-05-15T22:16:10.912Z,5.80
2018-05-15T22:18:43.631Z,5.23
2018-05-15T22:21:16.100Z,5.00
2018-05-15T22:23:42.469Z,5.40
2018-05-15T22:26:09.074Z,5.20
2018-05-15T22:28:35.775Z,4.30
2018-05-15T22:31:02.380Z,4.97
2018-05-15T22:33:29.004Z,5.20
2018-05-15T22:35:55.684Z,5.50
2018-05-15T22:38:22.274Z,5.67
2018-05-15T22:40:48.854Z,5.50
2018-05-15T22:43:15.488Z,5.10
2018-05-15T22:45:42.060Z,5.00
2018-05-15T22:48:08.786Z,5.30
2018-05-15T22:50:35.388Z,5.03
2018-05-15T22:53:01.976Z,5.60
2018-05-15T22:55:28.611Z,5.50
2018-05-15T22:57:55.196Z,5.10
2018-05-15T23:00:21.812Z,5.17
2018-05-15T23:02:48.410Z,5.77
2018-05-15T23:05:15.318Z,5.30
2018-05-15T23:07:41.949Z,5.90
2018-05-15T23:10:08.550Z,6.77
2018-05-15T23:12:35.186Z,5.77
2018-05-15T23:15:01.811Z,5.73
2018-05-15T23:17:28.398Z,5.63
2018-05-15T23:19:55.012Z,6.53
2018-05-15T23:22:27.438Z,6.13
2018-05-15T23:24:54.058Z,6.03
2018-05-15T23:27:21.499Z,5.47
2018-05-15T23:29:48.085Z,5.60
2018-05-15T23:32:14.687Z,5.83
2018-05-15T23:34:41.271Z,5.67
2018-05-15T23:37:07.878Z,5.70
2018-05-15T23:39:34.498Z,6.07
2018-05-15T23:42:01.291Z,5.37
2018-05-15T23:44:27.904Z,5.90
2018-05-15T23:46:54.501Z,5.47
2018-05-15T23:49:21.094Z,6.50
2018-05-15T23:51:47.719Z,6.00
2018-05-15T23:54:14.301Z,5.50
2018-05-15T23:56:40.926Z,6.73
2018-05-15T23:59:07.656Z,6.20
